createdAt,value
2024-05-09T00:01:36.618Z,16.70
2024-05-09T00:04:07.398Z,16.70
2024-05-09T00:06:39.898Z,16.70
2024-05-09T00:09:09.837Z,16.70
2024-05-09T00:11:39.846Z,16.70
2024-05-09T00:14:09.810Z,16.60
2024-05-09T00:16:39.704Z,16.70
2024-05-09T00:19:09.769Z,16.60
2024-05-09T00:21:44.235Z,16.60
2024-05-09T00:24:13.993Z,16.60
2024-05-09T00:26:44.273Z,16.60
2024-05-09T00:29:14.226Z,16.60
2024-05-09T00:31:44.444Z,16.60
2024-05-09T00:34:14.356Z,16.60
2024-05-09T00:36:46.940Z,16.60
2024-05-09T00:39:17.253Z,16.50
2024-05-09T00:41:47.130Z,16.50
2024-05-09T00:44:17.242Z,16.50
2024-05-09T00:46:47.214Z,16.50
2024-05-09T00:49:17.282Z,16.50
2024-05-09T00:51:50.488Z,16.50
2024-05-09T00:54:21.272Z,16.50
2024-05-09T00:56:52.350Z,16.50
2024-05-09T00:59:22.929Z,16.50
2024-05-09T01:01:52.893Z,16.50
2024-05-09T01:04:23.620Z,16.40
2024-05-09T01:06:56.033Z,16.50
2024-05-09T01:09:25.885Z,16.40
2024-05-09T01:11:55.837Z,16.40
2024-05-09T01:14:25.761Z,16.40
2024-05-09T01:16:56.374Z,16.30
2024-05-09T01:19:29.348Z,16.40
2024-05-09T01:22:04.167Z,16.40
2024-05-09T01:24:36.759Z,16.30
2024-05-09T01:27:06.979Z,16.30
2024-05-09T01:29:36.820Z,16.30
2024-05-09T01:32:07.221Z,16.30
2024-05-09T01:34:37.387Z,16.30
2024-05-09T01:37:07.445Z,16.30
2024-05-09T01:39:39.860Z,16.30
2024-05-09T01:42:09.637Z,16.30
2024-05-09T01:44:39.412Z,16.20
2024-05-09T01:47:09.511Z,16.20
2024-05-09T01:49:40.218Z,16.20
2024-05-09T01:52:10.020Z,16.20
2024-05-09T01:54:42.352Z,16.20
2024-05-09T01:57:12.158Z,16.20
2024-05-09T01:59:42.060Z,16.20
2024-05-09T02:02:12.032Z,16.20
2024-05-09T02:04:42.168Z,16.20
2024-05-09T02:07:12.078Z,16.10
2024-05-09T02:09:44.495Z,16.20
2024-05-09T02:12:14.851Z,16.10
2024-05-09T02:14:44.812Z,16.10
2024-05-09T02:17:14.789Z,16.10
2024-05-09T02:19:45.018Z,16.10
2024-05-09T02:22:14.912Z,16.10
2024-05-09T02:24:47.354Z,16.10
2024-05-09T02:27:17.174Z,16.00
2024-05-09T02:29:48.186Z,16.00
2024-05-09T02:32:18.261Z,16.00
2024-05-09T02:34:48.584Z,16.00
2024-05-09T02:37:19.566Z,16.00
2024-05-09T02:39:49.350Z,16.00
2024-05-09T02:42:19.385Z,16.00
2024-05-09T02:44:46.550Z,16.00
2024-05-09T02:47:17.098Z,16.00
2024-05-09T02:49:44.354Z,16.20
2024-05-09T02:52:14.136Z,16.00
2024-05-09T02:54:41.667Z,15.90
2024-05-09T02:57:14.119Z,15.90
2024-05-09T02:59:41.369Z,15.90
2024-05-09T03:02:11.288Z,15.90
2024-05-09T03:04:39.103Z,15.90
2024-05-09T03:07:08.959Z,15.90
2024-05-09T03:09:36.240Z,15.80
2024-05-09T03:12:07.472Z,15.80
2024-05-09T03:14:37.358Z,15.80
2024-05-09T03:17:07.677Z,15.80
2024-05-09T03:19:35.610Z,15.70
2024-05-09T03:22:05.670Z,15.70
2024-05-09T03:24:33.054Z,15.70
2024-05-09T03:27:02.827Z,15.70
2024-05-09T03:29:30.215Z,15.70
2024-05-09T03:32:03.353Z,15.70
2024-05-09T03:34:30.850Z,15.60
2024-05-09T03:37:00.711Z,15.60
2024-05-09T03:39:30.766Z,15.60
2024-05-09T03:42:00.863Z,15.60
2024-05-09T03:44:30.784Z,15.60
2024-05-09T03:47:00.708Z,15.60
2024-05-09T03:49:30.667Z,15.60
2024-05-09T03:51:57.991Z,15.60
2024-05-09T03:54:28.612Z,15.60
2024-05-09T03:56:56.074Z,15.50
2024-05-09T03:59:25.943Z,15.50
2024-05-09T04:01:53.278Z,15.50
2024-05-09T04:04:25.754Z,15.50
2024-05-09T04:06:52.988Z,15.50
2024-05-09T04:09:23.069Z,15.50
2024-05-09T04:11:50.370Z,15.40
2024-05-09T04:14:20.293Z,15.40
2024-05-09T04:16:48.058Z,15.40
2024-05-09T04:19:18.109Z,15.40
2024-05-09T04:21:48.388Z,15.40
2024-05-09T04:24:18.131Z,15.40
2024-05-09T04:26:45.743Z,15.40
2024-05-09T04:29:16.630Z,15.40
2024-05-09T04:31:44.160Z,15.40
2024-05-09T04:34:14.409Z,15.60
2024-05-09T04:36:44.334Z,15.40
2024-05-09T04:39:17.089Z,15.30
2024-05-09T04:41:44.297Z,15.40
2024-05-09T04:44:14.155Z,15.30
2024-05-09T04:46:41.406Z,15.30
2024-05-09T04:49:11.362Z,15.30
2024-05-09T04:51:39.111Z,15.30
2024-05-09T04:54:15.651Z,15.30
2024-05-09T04:56:53.213Z,15.40
2024-05-09T04:59:23.024Z,15.40
2024-05-09T05:01:50.412Z,15.40
2024-05-09T05:04:20.531Z,15.40
2024-05-09T05:06:47.812Z,15.40
2024-05-09T05:09:17.719Z,15.40
2024-05-09T05:11:45.048Z,15.40
2024-05-09T05:14:17.497Z,15.30
2024-05-09T05:16:44.793Z,15.40
2024-05-09T05:19:17.721Z,15.40
2024-05-09T05:21:45.013Z,15.40
2024-05-09T05:24:14.754Z,15.20
2024-05-09T05:26:42.039Z,15.40
2024-05-09T05:29:12.873Z,15.40
2024-05-09T05:31:42.754Z,15.40
2024-05-09T05:34:12.814Z,15.40
2024-05-09T05:36:40.094Z,15.40
2024-05-09T05:39:10.155Z,15.40
2024-05-09T05:41:37.344Z,15.40
2024-05-09T05:44:07.695Z,15.40
2024-05-09T05:46:34.855Z,15.50
2024-05-09T05:49:07.429Z,15.50
2024-05-09T05:51:34.645Z,15.50
2024-05-09T05:54:04.564Z,15.50
2024-05-09T05:56:32.038Z,15.50
2024-05-09T05:59:01.977Z,15.50
2024-05-09T06:01:29.507Z,15.50
2024-05-09T06:03:59.857Z,15.60
2024-05-09T06:06:29.965Z,15.60
2024-05-09T06:08:59.974Z,15.70
2024-05-09T06:11:27.477Z,15.60
2024-05-09T06:13:57.583Z,15.70
2024-05-09T06:16:24.785Z,15.70
2024-05-09T06:18:54.854Z,15.70
2024-05-09T06:21:22.289Z,15.70
2024-05-09T06:23:55.057Z,15.70
2024-05-09T06:26:22.614Z,15.80
2024-05-09T06:28:52.554Z,15.80
2024-05-09T06:31:19.853Z,15.80
2024-05-09T06:33:49.896Z,15.80
2024-05-09T06:36:17.232Z,15.90
2024-05-09T06:38:47.127Z,15.90
2024-05-09T06:41:17.199Z,15.90
2024-05-09T06:43:47.436Z,15.90
2024-05-09T06:46:14.860Z,16.00
2024-05-09T06:48:46.560Z,16.00
2024-05-09T06:51:14.243Z,16.00
2024-05-09T06:53:44.005Z,16.00
2024-05-09T06:56:11.398Z,16.00
2024-05-09T06:58:43.805Z,16.10
2024-05-09T07:01:11.090Z,16.00
2024-05-09T07:03:43.986Z,16.10
2024-05-09T07:06:11.890Z,16.10
2024-05-09T07:08:41.783Z,16.10
2024-05-09T07:11:09.144Z,16.10
2024-05-09T07:13:39.073Z,16.10
2024-05-09T07:16:09.018Z,16.20
2024-05-09T07:18:39.144Z,16.20
2024-05-09T07:21:07.061Z,16.20
2024-05-09T07:23:37.016Z,16.20
2024-05-09T07:26:04.673Z,16.20
2024-05-09T07:28:34.508Z,16.20
2024-05-09T07:31:01.884Z,16.30
2024-05-09T07:33:34.400Z,16.30
2024-05-09T07:36:01.794Z,16.30
2024-05-09T07:38:31.934Z,16.40
2024-05-09T07:40:59.459Z,16.30
2024-05-09T07:43:29.507Z,16.40
2024-05-09T07:45:59.672Z,16.40
2024-05-09T07:53:48.230Z,16.50
2024-05-09T07:56:21.069Z,16.50
2024-05-09T07:58:53.064Z,16.50
2024-05-09T08:01:21.175Z,16.60
2024-05-09T08:03:55.278Z,16.60
2024-05-09T08:06:23.790Z,16.60
2024-05-09T08:08:53.946Z,16.60
2024-05-09T08:11:21.638Z,16.60
2024-05-09T08:13:51.582Z,16.60
2024-05-09T08:16:19.428Z,16.60
2024-05-09T08:18:54.327Z,16.70
2024-05-09T08:21:21.783Z,16.70
2024-05-09T08:23:51.604Z,16.70
2024-05-09T08:26:18.935Z,16.70
2024-05-09T08:28:49.040Z,16.70
2024-05-09T08:31:16.481Z,16.70
2024-05-09T08:33:47.512Z,16.70
2024-05-09T08:36:17.818Z,16.80
2024-05-09T08:38:47.663Z,16.80
2024-05-09T08:41:15.649Z,16.80
2024-05-09T08:43:47.538Z,16.80
2024-05-09T08:46:15.456Z,16.90
2024-05-09T08:48:46.609Z,16.80
2024-05-09T08:51:14.460Z,16.90
2024-05-09T08:53:47.147Z,16.90
2024-05-09T08:56:16.350Z,16.90
2024-05-09T08:58:48.146Z,16.90
2024-05-09T09:01:18.196Z,16.90
2024-05-09T09:03:48.711Z,16.90
2024-05-09T09:06:20.658Z,17.00
2024-05-09T09:08:53.726Z,17.00
2024-05-09T09:11:21.002Z,17.00
2024-05-09T09:13:52.084Z,17.00
2024-05-09T09:16:19.484Z,17.10
2024-05-09T09:18:51.490Z,17.10
2024-05-09T09:21:18.913Z,17.00
2024-05-09T09:23:48.711Z,17.00
2024-05-09T09:26:19.070Z,17.00
2024-05-09T09:28:49.792Z,17.10
2024-05-09T09:31:19.096Z,17.10
2024-05-09T09:33:49.719Z,17.10
2024-05-09T09:36:18.442Z,17.10
2024-05-09T09:38:50.864Z,17.10
2024-05-09T09:41:26.357Z,17.20
2024-05-09T09:43:56.977Z,17.20
2024-05-09T09:46:26.541Z,17.20
2024-05-09T09:48:56.899Z,17.30
2024-05-09T09:51:25.575Z,17.30
2024-05-09T09:53:56.005Z,17.30
2024-05-09T09:56:30.277Z,17.20
2024-05-09T09:59:01.526Z,17.40
2024-05-09T10:01:29.034Z,17.40
2024-05-09T10:04:00.044Z,17.40
2024-05-09T10:06:28.894Z,17.40
2024-05-09T10:08:59.554Z,17.40
2024-05-09T10:11:30.804Z,17.50
2024-05-09T10:14:01.601Z,17.50
2024-05-09T10:16:31.463Z,17.50
2024-05-09T10:19:01.942Z,17.60
2024-05-09T10:21:29.433Z,17.50
2024-05-09T10:24:00.790Z,17.60
2024-05-09T10:26:34.792Z,17.60
2024-05-09T10:29:14.113Z,17.60
2024-05-09T10:31:42.879Z,17.70
2024-05-09T10:34:20.195Z,17.70
2024-05-09T10:36:52.448Z,17.70
2024-05-09T10:39:23.170Z,17.70
2024-05-09T10:41:53.153Z,17.70
2024-05-09T10:44:24.578Z,17.80
2024-05-09T10:46:54.632Z,17.80
2024-05-09T10:49:25.467Z,17.80
2024-05-09T10:51:53.409Z,17.80
2024-05-09T10:54:23.227Z,17.80
2024-05-09T10:56:58.796Z,17.90
2024-05-09T10:59:35.572Z,17.90
2024-05-09T11:02:05.029Z,18.00
2024-05-09T11:04:36.490Z,18.00
2024-05-09T11:07:07.562Z,18.00
2024-05-09T11:09:38.812Z,18.10
2024-05-09T11:12:09.485Z,18.00
2024-05-09T11:14:39.385Z,18.10
2024-05-09T11:17:08.011Z,18.10
2024-05-09T11:19:41.706Z,18.10
2024-05-09T11:22:09.144Z,18.10
2024-05-09T11:24:39.649Z,18.00
2024-05-09T11:27:12.581Z,18.10
2024-05-09T11:29:44.735Z,18.10
2024-05-09T11:32:14.933Z,18.10
2024-05-09T11:34:45.185Z,18.20
2024-05-09T11:37:13.742Z,18.20
2024-05-09T11:39:43.907Z,18.20
2024-05-09T11:42:14.324Z,18.30
2024-05-09T11:44:44.124Z,18.30
2024-05-09T11:47:11.402Z,18.30
2024-05-09T11:49:41.310Z,18.40
2024-05-09T11:52:08.713Z,18.40
2024-05-09T11:54:38.608Z,18.50
2024-05-09T11:57:05.886Z,18.50
2024-05-09T11:59:38.493Z,18.50
2024-05-09T12:02:05.985Z,18.50
2024-05-09T12:04:36.042Z,18.60
2024-05-09T12:07:03.591Z,18.70
2024-05-09T12:09:34.553Z,18.70
2024-05-09T12:12:01.806Z,18.70
2024-05-09T12:14:31.582Z,18.80
2024-05-09T12:17:03.765Z,18.80
2024-05-09T12:19:33.754Z,18.80
2024-05-09T12:22:01.227Z,18.90
2024-05-09T12:24:31.346Z,19.00
2024-05-09T12:26:58.820Z,19.00
2024-05-09T12:29:28.965Z,19.00
2024-05-09T12:31:56.223Z,19.00
2024-05-09T12:34:28.796Z,19.00
2024-05-09T12:36:58.776Z,19.10
2024-05-09T12:39:26.135Z,19.00
2024-05-09T12:41:55.912Z,19.00
2024-05-09T12:44:23.096Z,19.10
2024-05-09T12:46:53.287Z,19.10
2024-05-09T12:49:24.357Z,19.10
2024-05-09T12:51:56.966Z,19.20
2024-05-09T12:54:24.182Z,19.20
2024-05-09T12:56:54.277Z,19.30
2024-05-09T12:59:21.503Z,19.40
2024-05-09T13:01:51.634Z,19.30
2024-05-09T13:04:19.330Z,19.40
2024-05-09T13:06:49.479Z,19.50
2024-05-09T13:09:19.816Z,19.60
2024-05-09T13:11:49.819Z,19.70
2024-05-09T13:14:17.116Z,19.80
2024-05-09T13:16:47.051Z,19.90
2024-05-09T13:19:14.480Z,19.90
2024-05-09T13:21:44.403Z,20.00
2024-05-09T13:24:11.676Z,20.00
2024-05-09T13:26:44.188Z,20.00
2024-05-09T13:29:11.498Z,20.10
2024-05-09T13:31:41.592Z,20.20
2024-05-09T13:34:08.981Z,20.20
2024-05-09T13:36:38.926Z,20.30
2024-05-09T13:39:06.210Z,20.30
2024-05-09T13:41:36.143Z,20.40
2024-05-09T13:44:06.402Z,20.40
2024-05-09T13:46:36.518Z,20.40
2024-05-09T13:49:04.112Z,20.50
2024-05-09T13:51:34.307Z,20.40
2024-05-09T13:54:01.549Z,20.40
2024-05-09T13:56:31.380Z,20.50
2024-05-09T13:58:58.654Z,20.50
2024-05-09T14:01:31.291Z,20.40
2024-05-09T14:03:58.617Z,20.30
2024-05-09T14:06:28.621Z,20.30
2024-05-09T14:08:56.031Z,20.30
2024-05-09T14:11:25.802Z,20.20
2024-05-09T14:13:53.071Z,20.20
2024-05-09T14:16:23.331Z,20.10
2024-05-09T14:18:53.457Z,20.10
2024-05-09T14:21:23.219Z,20.10
2024-05-09T14:23:50.495Z,20.10
2024-05-09T14:26:20.376Z,20.10
2024-05-09T14:28:47.694Z,20.10
2024-05-09T14:31:17.908Z,20.10
2024-05-09T14:33:45.366Z,20.10
2024-05-09T14:36:18.076Z,20.10
2024-05-09T14:38:45.256Z,20.20
2024-05-09T14:41:15.145Z,20.20
2024-05-09T14:43:42.305Z,20.30
2024-05-09T14:46:12.245Z,20.20
2024-05-09T14:48:39.731Z,20.30
2024-05-09T14:51:09.747Z,20.30
2024-05-09T14:53:39.511Z,20.40
2024-05-09T14:56:09.838Z,20.50
2024-05-09T14:58:37.051Z,20.50
2024-05-09T15:01:07.464Z,20.60
2024-05-09T15:03:34.956Z,20.60
2024-05-09T15:06:04.916Z,20.50
2024-05-09T15:08:32.664Z,20.60
2024-05-09T15:11:05.299Z,20.60
2024-05-09T15:13:32.904Z,20.60
2024-05-09T15:16:03.121Z,20.60
2024-05-09T15:18:30.577Z,20.70
2024-05-09T15:21:00.870Z,20.60
2024-05-09T15:23:28.128Z,20.60
2024-05-09T15:25:57.952Z,20.60
2024-05-09T15:28:27.878Z,20.60
2024-05-09T15:30:58.021Z,20.50
2024-05-09T15:33:25.309Z,20.50
2024-05-09T15:35:55.377Z,20.50
2024-05-09T15:38:22.584Z,20.50
2024-05-09T15:40:52.709Z,20.60
2024-05-09T15:43:20.104Z,20.70
2024-05-09T15:45:52.738Z,20.70
2024-05-09T15:48:20.233Z,20.90
2024-05-09T15:50:50.254Z,21.00
2024-05-09T15:53:17.504Z,21.10
2024-05-09T15:55:47.403Z,21.20
2024-05-09T15:58:15.071Z,21.20
2024-05-09T16:00:47.789Z,21.40
2024-05-09T16:03:21.174Z,21.40
2024-05-09T16:05:51.805Z,21.50
2024-05-09T16:08:19.354Z,21.60
2024-05-09T16:10:50.088Z,21.60
2024-05-09T16:13:17.991Z,21.70
2024-05-09T16:15:48.793Z,21.70
2024-05-09T16:18:19.700Z,21.70
2024-05-09T16:20:50.440Z,21.60
2024-05-09T16:23:18.242Z,21.60
2024-05-09T16:25:48.878Z,21.50
2024-05-09T16:28:16.522Z,21.50
2024-05-09T16:30:46.398Z,21.40
2024-05-09T16:33:13.988Z,21.30
2024-05-09T16:35:47.037Z,21.20
2024-05-09T16:38:14.240Z,21.20
2024-05-09T16:40:44.091Z,21.10
2024-05-09T16:43:12.636Z,21.10
2024-05-09T16:45:44.808Z,21.10
2024-05-09T16:48:13.036Z,21.00
2024-05-09T16:50:43.190Z,21.10
2024-05-09T16:53:13.823Z,21.00
2024-05-09T16:55:43.822Z,20.90
2024-05-09T16:58:12.365Z,20.90
2024-05-09T17:00:43.932Z,20.90
2024-05-09T17:03:14.662Z,20.70
2024-05-09T17:05:47.127Z,20.70
2024-05-09T17:08:18.350Z,20.70
2024-05-09T17:10:49.705Z,20.70
2024-05-09T17:13:20.385Z,20.70
2024-05-09T17:15:51.396Z,20.70
2024-05-09T17:18:19.072Z,20.60
2024-05-09T17:20:49.178Z,20.60
2024-05-09T17:23:19.097Z,20.60
2024-05-09T17:25:48.943Z,20.60
2024-05-09T17:28:16.326Z,20.60
2024-05-09T17:30:46.532Z,20.70
2024-05-09T17:33:14.047Z,20.70
2024-05-09T17:35:45.887Z,20.60
2024-05-09T17:38:14.015Z,20.60
2024-05-09T17:40:46.459Z,20.60
2024-05-09T17:43:13.737Z,20.60
2024-05-09T17:45:43.822Z,20.60
2024-05-09T17:48:12.301Z,20.60
2024-05-09T17:50:42.918Z,20.60
2024-05-09T17:53:10.485Z,20.50
2024-05-09T17:55:42.625Z,20.50
2024-05-09T17:58:13.181Z,20.50
2024-05-09T18:00:43.134Z,20.40
2024-05-09T18:03:12.233Z,20.40
2024-05-09T18:05:44.515Z,20.40
2024-05-09T18:08:13.117Z,20.30
2024-05-09T18:10:43.400Z,20.30
2024-05-09T18:13:13.724Z,20.30
2024-05-09T18:15:45.086Z,20.30
2024-05-09T18:18:13.361Z,20.20
2024-05-09T18:20:45.786Z,20.20
2024-05-09T18:23:16.228Z,20.20
2024-05-09T18:25:48.065Z,20.20
2024-05-09T18:28:18.405Z,20.20
2024-05-09T18:30:48.328Z,20.20
2024-05-09T18:33:16.343Z,20.20
2024-05-09T18:35:47.199Z,20.20
2024-05-09T18:38:14.465Z,20.10
2024-05-09T18:40:47.203Z,20.20
2024-05-09T18:43:26.177Z,20.20
2024-05-09T18:46:01.183Z,20.10
2024-05-09T18:48:28.597Z,20.10
2024-05-09T18:50:58.630Z,20.00
2024-05-09T18:53:25.961Z,20.00
2024-05-09T18:55:55.720Z,19.90
2024-05-09T18:58:25.610Z,19.80
2024-05-09T19:00:57.712Z,19.80
2024-05-09T19:03:26.644Z,19.80
2024-05-09T19:05:56.808Z,19.80
2024-05-09T19:08:24.086Z,19.70
2024-05-09T19:10:54.126Z,19.70
2024-05-09T19:13:21.397Z,19.70
2024-05-09T19:15:54.070Z,19.70
2024-05-09T19:18:21.870Z,19.70
2024-05-09T19:20:51.811Z,19.70
2024-05-09T19:23:19.001Z,19.70
2024-05-09T19:25:49.307Z,19.70
2024-05-09T19:28:16.612Z,19.60
2024-05-09T19:30:46.510Z,19.60
2024-05-09T19:33:16.478Z,19.60
2024-05-09T19:35:46.546Z,19.60
2024-05-09T19:38:13.910Z,19.60
2024-05-09T19:40:43.793Z,19.60
2024-05-09T19:43:11.322Z,19.60
2024-05-09T19:45:41.274Z,19.60
2024-05-09T19:48:08.877Z,19.60
2024-05-09T19:50:44.144Z,19.60
2024-05-09T19:53:12.994Z,19.60
2024-05-09T19:55:43.393Z,19.60
2024-05-09T19:58:12.252Z,19.60
2024-05-09T20:00:44.072Z,19.40
2024-05-09T20:03:15.234Z,19.60
2024-05-09T20:05:49.144Z,19.50
2024-05-09T20:08:18.385Z,19.60
2024-05-09T20:10:48.326Z,19.50
2024-05-09T20:13:15.745Z,19.50
2024-05-09T20:15:45.720Z,19.50
2024-05-09T20:18:13.300Z,19.50
2024-05-09T20:20:44.987Z,19.50
2024-05-09T20:23:15.609Z,19.40
2024-05-09T20:25:46.358Z,19.50
2024-05-09T20:28:13.776Z,19.40
2024-05-09T20:30:43.710Z,19.40
2024-05-09T20:33:12.675Z,19.40
2024-05-09T20:35:42.741Z,19.40
2024-05-09T20:38:10.198Z,19.40
2024-05-09T20:40:43.767Z,19.40
2024-05-09T20:43:11.270Z,19.40
2024-05-09T20:45:41.796Z,19.40
2024-05-09T20:48:09.766Z,19.40
2024-05-09T20:50:42.023Z,19.30
2024-05-09T20:53:11.541Z,19.30
2024-05-09T20:55:45.118Z,19.40
2024-05-09T20:58:13.218Z,19.30
2024-05-09T21:00:45.427Z,19.30
2024-05-09T21:03:16.162Z,19.30
2024-05-09T21:05:47.701Z,19.30
2024-05-09T21:08:15.682Z,19.30
2024-05-09T21:10:48.273Z,19.50
2024-05-09T21:13:16.025Z,19.20
2024-05-09T21:15:45.833Z,19.20
2024-05-09T21:18:13.148Z,19.20
2024-05-09T21:20:43.010Z,19.20
2024-05-09T21:23:10.217Z,19.20
2024-05-09T21:25:40.022Z,19.20
2024-05-09T21:28:10.064Z,19.20
2024-05-09T21:30:42.652Z,19.10
2024-05-09T21:33:12.860Z,19.10
2024-05-09T21:35:44.853Z,19.10
2024-05-09T21:38:14.222Z,19.10
2024-05-09T21:40:45.238Z,19.10
2024-05-09T21:43:15.512Z,19.10
2024-05-09T21:45:45.616Z,19.00
2024-05-09T21:48:13.421Z,19.00
2024-05-09T21:50:43.433Z,19.00
2024-05-09T21:53:11.226Z,19.00
2024-05-09T21:55:41.292Z,19.00
2024-05-09T21:58:08.667Z,19.00
2024-05-09T22:00:42.769Z,18.90
2024-05-09T22:03:11.706Z,18.90
2024-05-09T22:05:44.275Z,18.90
2024-05-09T22:08:12.009Z,18.90
2024-05-09T22:10:41.952Z,18.90
2024-05-09T22:13:09.408Z,18.80
2024-05-09T22:15:42.608Z,18.80
2024-05-09T22:18:11.048Z,18.80
2024-05-09T22:20:45.244Z,18.80
2024-05-09T22:23:13.965Z,18.80
2024-05-09T22:25:43.955Z,18.80
2024-05-09T22:28:14.444Z,18.80
2024-05-09T22:30:47.767Z,18.70
2024-05-09T22:33:15.791Z,18.70
2024-05-09T22:35:45.858Z,18.70
2024-05-09T22:38:13.445Z,18.70
2024-05-09T22:40:48.247Z,18.70
2024-05-09T22:43:21.716Z,18.70
2024-05-09T22:45:56.705Z,18.60
2024-05-09T22:48:25.134Z,18.60
2024-05-09T22:50:56.204Z,18.60
2024-05-09T22:53:24.674Z,18.60
2024-05-09T22:55:54.633Z,18.60
2024-05-09T22:58:22.682Z,18.50
2024-05-09T23:00:52.840Z,18.60
2024-05-09T23:03:23.179Z,18.40
2024-05-09T23:05:53.077Z,18.50
2024-05-09T23:08:20.253Z,18.50
2024-05-09T23:10:50.020Z,18.50
2024-05-09T23:13:17.312Z,18.50
2024-05-09T23:15:47.257Z,18.40
2024-05-09T23:18:14.560Z,18.40
2024-05-09T23:20:47.122Z,18.40
2024-05-09T23:23:14.378Z,18.40
2024-05-09T23:25:44.383Z,18.40
2024-05-09T23:28:14.328Z,18.30
2024-05-09T23:30:42.342Z,18.30
2024-05-09T23:33:14.196Z,18.30
2024-05-09T23:35:44.910Z,18.30
2024-05-09T23:38:15.398Z,18.30
2024-05-09T23:40:43.351Z,18.20
2024-05-09T23:43:14.037Z,18.20
2024-05-09T23:45:41.939Z,18.20
2024-05-09T23:48:12.419Z,18.10
2024-05-09T23:50:40.738Z,18.10
2024-05-09T23:53:14.244Z,18.10
2024-05-09T23:55:41.565Z,18.00
2024-05-09T23:58:11.671Z,18.00
